SGAS/ASU METAR and TAF weather

Enter ICAO airport designator
Station Type Date Time Source
SGAS METAR 2020/01/26 19:00 UTC NOAA

SGAS 261900Z VRB04KT 9999 FEW040 35/17 Q1009


Station Type Date Time Source
SGAS Decoded METAR 2020/01/26 19:00 UTC NOAA

Asuncion / Aeropuerto, Paraguay (SGAS) 25-16S 057-38W 101M
Jan 26, 2020 - 02:00 PM EST / 2020.01.26 1900 UTC
Wind: Variable at 5 MPH (4 KT):0
Visibility: greater than 7 mile(s):0
Sky conditions: mostly clear
Temperature: 95 F (35 C)
Heat index: 96.1 F (35.6 C):1
Dew Point: 62 F (17 C)
Relative Humidity: 34%
Pressure (altimeter): 29.80 in. Hg (1009 hPa)
ob: SGAS 261900Z VRB04KT 9999 FEW040 35/17 Q1009
cycle: 19

Station Type Date Time Source
SGAS TAF 2020/01/26 18:36 UTC NOAA

TAF TAF SGAS 261634Z 2618/2718 07008KT 9999 SCT033 TX36/2619Z TN23/2709Z PROB40 2622/2700 VRB03KT 8000 NSC
BECMG 2705/2708 CAVOK
BECMG 2713/2716 05010KT 9999 BKN030

Example: see airport list